sensor_id;sensor_type;location;lat;lon;timestamp;P1;durP1;ratioP1;P2;durP2;ratioP2
75634;SDS011;64227;48.724;9.104;2023-01-15T00:01:36;0.10;;;0.10;;
75634;SDS011;64227;48.724;9.104;2023-01-15T00:04:02;1.15;;;0.28;;
75634;SDS011;64227;48.724;9.104;2023-01-15T00:06:29;0.30;;;0.10;;
75634;SDS011;64227;48.724;9.104;2023-01-15T00:08:55;1.83;;;0.20;;
75634;SDS011;64227;48.724;9.104;2023-01-15T00:11:21;0.43;;;0.20;;
75634;SDS011;64227;48.724;9.104;2023-01-15T00:13:46;0.88;;;0.30;;
75634;SDS011;64227;48.724;9.104;2023-01-15T00:16:13;0.55;;;0.25;;
75634;SDS011;64227;48.724;9.104;2023-01-15T00:18:40;0.22;;;0.22;;
75634;SDS011;64227;48.724;9.104;2023-01-15T00:21:07;0.80;;;0.30;;
75634;SDS011;64227;48.724;9.104;2023-01-15T00:23:36;1.90;;;0.30;;
75634;SDS011;64227;48.724;9.104;2023-01-15T00:26:21;0.40;;;0.20;;
75634;SDS011;64227;48.724;9.104;2023-01-15T00:29:06;0.20;;;0.20;;
75634;SDS011;64227;48.724;9.104;2023-01-15T00:31:32;0.60;;;0.17;;
75634;SDS011;64227;48.724;9.104;2023-01-15T00:33:58;0.80;;;0.20;;
75634;SDS011;64227;48.724;9.104;2023-01-15T00:36:23;0.03;;;0.03;;
75634;SDS011;64227;48.724;9.104;2023-01-15T00:38:49;0.30;;;0.20;;
75634;SDS011;64227;48.724;9.104;2023-01-15T00:41:15;0.38;;;0.10;;
75634;SDS011;64227;48.724;9.104;2023-01-15T00:43:40;0.57;;;0.20;;
75634;SDS011;64227;48.724;9.104;2023-01-15T00:46:06;0.20;;;0.20;;
75634;SDS011;64227;48.724;9.104;2023-01-15T00:48:32;0.32;;;0.20;;
75634;SDS011;64227;48.724;9.104;2023-01-15T00:50:58;0.50;;;0.10;;
75634;SDS011;64227;48.724;9.104;2023-01-15T00:53:23;0.20;;;0.15;;
75634;SDS011;64227;48.724;9.104;2023-01-15T00:55:49;0.17;;;0.15;;
75634;SDS011;64227;48.724;9.104;2023-01-15T00:58:14;1.10;;;0.20;;
75634;SDS011;64227;48.724;9.104;2023-01-15T01:00:39;0.20;;;0.10;;
75634;SDS011;64227;48.724;9.104;2023-01-15T01:03:05;0.30;;;0.20;;
75634;SDS011;64227;48.724;9.104;2023-01-15T01:05:30;0.50;;;0.22;;
75634;SDS011;64227;48.724;9.104;2023-01-15T01:07:56;0.20;;;0.20;;
75634;SDS011;64227;48.724;9.104;2023-01-15T01:10:23;0.25;;;0.20;;
75634;SDS011;64227;48.724;9.104;2023-01-15T01:12:49;0.10;;;0.10;;
75634;SDS011;64227;48.724;9.104;2023-01-15T01:15:16;0.20;;;0.20;;
75634;SDS011;64227;48.724;9.104;2023-01-15T01:17:42;0.22;;;0.10;;
75634;SDS011;64227;48.724;9.104;2023-01-15T01:20:08;0.28;;;0.15;;
75634;SDS011;64227;48.724;9.104;2023-01-15T01:22:34;1.98;;;0.28;;
75634;SDS011;64227;48.724;9.104;2023-01-15T01:25:00;0.30;;;0.30;;
75634;SDS011;64227;48.724;9.104;2023-01-15T01:27:26;0.20;;;0.20;;
75634;SDS011;64227;48.724;9.104;2023-01-15T01:29:51;0.20;;;0.20;;
75634;SDS011;64227;48.724;9.104;2023-01-15T01:32:16;0.55;;;0.40;;
75634;SDS011;64227;48.724;9.104;2023-01-15T01:34:42;0.20;;;0.20;;
75634;SDS011;64227;48.724;9.104;2023-01-15T01:37:07;0.47;;;0.15;;
75634;SDS011;64227;48.724;9.104;2023-01-15T01:39:32;0.60;;;0.40;;
75634;SDS011;64227;48.724;9.104;2023-01-15T01:41:58;0.10;;;0.10;;
75634;SDS011;64227;48.724;9.104;2023-01-15T01:46:59;0.00;;;0.00;;
75634;SDS011;64227;48.724;9.104;2023-01-15T01:49:25;0.10;;;0.10;;
75634;SDS011;64227;48.724;9.104;2023-01-15T01:52:01;0.40;;;0.10;;
75634;SDS011;64227;48.724;9.104;2023-01-15T01:54:29;0.45;;;0.10;;
75634;SDS011;64227;48.724;9.104;2023-01-15T01:56:55;0.15;;;0.10;;
75634;SDS011;64227;48.724;9.104;2023-01-15T01:59:21;0.52;;;0.20;;
75634;SDS011;64227;48.724;9.104;2023-01-15T02:01:47;0.20;;;0.10;;
75634;SDS011;64227;48.724;9.104;2023-01-15T02:04:13;0.20;;;0.20;;
75634;SDS011;64227;48.724;9.104;2023-01-15T02:06:40;0.65;;;0.10;;
75634;SDS011;64227;48.724;9.104;2023-01-15T02:09:06;0.13;;;0.13;;
75634;SDS011;64227;48.724;9.104;2023-01-15T02:11:32;0.13;;;0.10;;
75634;SDS011;64227;48.724;9.104;2023-01-15T02:14:04;0.10;;;0.10;;
75634;SDS011;64227;48.724;9.104;2023-01-15T02:22:01;0.00;;;0.00;;
75634;SDS011;64227;48.724;9.104;2023-01-15T02:27:23;0.32;;;0.20;;
75634;SDS011;64227;48.724;9.104;2023-01-15T02:29:52;0.10;;;0.10;;
75634;SDS011;64227;48.724;9.104;2023-01-15T02:32:39;1.27;;;0.20;;
75634;SDS011;64227;48.724;9.104;2023-01-15T02:35:17;0.30;;;0.10;;
75634;SDS011;64227;48.724;9.104;2023-01-15T02:37:48;0.17;;;0.17;;
75634;SDS011;64227;48.724;9.104;2023-01-15T02:40:16;0.20;;;0.17;;
75634;SDS011;64227;48.724;9.104;2023-01-15T02:42:43;0.10;;;0.10;;
75634;SDS011;64227;48.724;9.104;2023-01-15T02:45:11;0.10;;;0.03;;
75634;SDS011;64227;48.724;9.104;2023-01-15T02:47:37;0.03;;;0.03;;
75634;SDS011;64227;48.724;9.104;2023-01-15T02:50:05;0.10;;;0.10;;
75634;SDS011;64227;48.724;9.104;2023-01-15T02:52:34;0.13;;;0.10;;
75634;SDS011;64227;48.724;9.104;2023-01-15T02:55:04;0.20;;;0.10;;
75634;SDS011;64227;48.724;9.104;2023-01-15T02:57:32;0.10;;;0.10;;
75634;SDS011;64227;48.724;9.104;2023-01-15T03:00:00;0.17;;;0.10;;
75634;SDS011;64227;48.724;9.104;2023-01-15T03:02:28;0.20;;;0.10;;
75634;SDS011;64227;48.724;9.104;2023-01-15T03:08:18;0.00;;;0.00;;
75634;SDS011;64227;48.724;9.104;2023-01-15T03:10:53;0.20;;;0.10;;
75634;SDS011;64227;48.724;9.104;2023-01-15T03:13:24;0.10;;;0.10;;
75634;SDS011;64227;48.724;9.104;2023-01-15T03:16:01;0.08;;;0.08;;
75634;SDS011;64227;48.724;9.104;2023-01-15T03:18:52;0.10;;;0.10;;
75634;SDS011;64227;48.724;9.104;2023-01-15T03:21:21;0.10;;;0.10;;
75634;SDS011;64227;48.724;9.104;2023-01-15T03:23:52;0.45;;;0.28;;
75634;SDS011;64227;48.724;9.104;2023-01-15T03:26:18;0.00;;;0.00;;
75634;SDS011;64227;48.724;9.104;2023-01-15T03:28:44;0.00;;;0.00;;
75634;SDS011;64227;48.724;9.104;2023-01-15T03:31:10;0.00;;;0.00;;
75634;SDS011;64227;48.724;9.104;2023-01-15T03:33:36;0.32;;;0.00;;
75634;SDS011;64227;48.724;9.104;2023-01-15T03:36:01;0.10;;;0.10;;
75634;SDS011;64227;48.724;9.104;2023-01-15T03:38:36;0.00;;;0.00;;
75634;SDS011;64227;48.724;9.104;2023-01-15T03:46:37;2.40;;;0.10;;
75634;SDS011;64227;48.724;9.104;2023-01-15T03:49:30;0.00;;;0.00;;
75634;SDS011;64227;48.724;9.104;2023-01-15T03:52:19;0.10;;;0.10;;
75634;SDS011;64227;48.724;9.104;2023-01-15T03:54:50;0.00;;;0.00;;
75634;SDS011;64227;48.724;9.104;2023-01-15T04:00:24;0.00;;;0.00;;
75634;SDS011;64227;48.724;9.104;2023-01-15T04:02:51;0.13;;;0.00;;
75634;SDS011;64227;48.724;9.104;2023-01-15T04:05:18;0.25;;;0.25;;
75634;SDS011;64227;48.724;9.104;2023-01-15T04:07:44;0.00;;;0.00;;
75634;SDS011;64227;48.724;9.104;2023-01-15T04:10:11;0.82;;;0.10;;
75634;SDS011;64227;48.724;9.104;2023-01-15T04:12:36;0.10;;;0.10;;
75634;SDS011;64227;48.724;9.104;2023-01-15T04:15:02;0.17;;;0.17;;
75634;SDS011;64227;48.724;9.104;2023-01-15T04:17:27;0.00;;;0.00;;
75634;SDS011;64227;48.724;9.104;2023-01-15T04:19:53;0.40;;;0.00;;
75634;SDS011;64227;48.724;9.104;2023-01-15T04:22:18;0.00;;;0.00;;
75634;SDS011;64227;48.724;9.104;2023-01-15T04:24:43;0.00;;;0.00;;
75634;SDS011;64227;48.724;9.104;2023-01-15T04:27:09;0.00;;;0.00;;
75634;SDS011;64227;48.724;9.104;2023-01-15T04:29:34;0.10;;;0.10;;
75634;SDS011;64227;48.724;9.104;2023-01-15T04:31:59;0.00;;;0.00;;
75634;SDS011;64227;48.724;9.104;2023-01-15T04:34:25;0.75;;;0.10;;
75634;SDS011;64227;48.724;9.104;2023-01-15T04:36:52;0.00;;;0.00;;
75634;SDS011;64227;48.724;9.104;2023-01-15T04:39:18;0.30;;;0.10;;
75634;SDS011;64227;48.724;9.104;2023-01-15T04:41:43;0.00;;;0.00;;
75634;SDS011;64227;48.724;9.104;2023-01-15T04:44:27;0.65;;;0.15;;
75634;SDS011;64227;48.724;9.104;2023-01-15T04:46:53;0.35;;;0.00;;
75634;SDS011;64227;48.724;9.104;2023-01-15T04:49:19;0.10;;;0.03;;
75634;SDS011;64227;48.724;9.104;2023-01-15T04:51:44;0.05;;;0.05;;
75634;SDS011;64227;48.724;9.104;2023-01-15T04:54:11;0.00;;;0.00;;
75634;SDS011;64227;48.724;9.104;2023-01-15T04:56:41;0.30;;;0.10;;
75634;SDS011;64227;48.724;9.104;2023-01-15T04:59:10;0.10;;;0.00;;
75634;SDS011;64227;48.724;9.104;2023-01-15T05:01:35;0.00;;;0.00;;
75634;SDS011;64227;48.724;9.104;2023-01-15T05:04:01;0.45;;;0.00;;
75634;SDS011;64227;48.724;9.104;2023-01-15T05:06:27;0.00;;;0.00;;
75634;SDS011;64227;48.724;9.104;2023-01-15T05:08:53;0.68;;;0.20;;
75634;SDS011;64227;48.724;9.104;2023-01-15T05:11:18;0.00;;;0.00;;
75634;SDS011;64227;48.724;9.104;2023-01-15T05:13:44;0.00;;;0.00;;
75634;SDS011;64227;48.724;9.104;2023-01-15T05:16:12;0.00;;;0.00;;
75634;SDS011;64227;48.724;9.104;2023-01-15T05:18:42;0.20;;;0.03;;
75634;SDS011;64227;48.724;9.104;2023-01-15T05:21:21;0.00;;;0.00;;
75634;SDS011;64227;48.724;9.104;2023-01-15T05:23:52;0.00;;;0.00;;
75634;SDS011;64227;48.724;9.104;2023-01-15T05:26:19;0.00;;;0.00;;
75634;SDS011;64227;48.724;9.104;2023-01-15T05:28:45;0.00;;;0.00;;
75634;SDS011;64227;48.724;9.104;2023-01-15T05:31:12;0.30;;;0.10;;
75634;SDS011;64227;48.724;9.104;2023-01-15T05:33:39;0.00;;;0.00;;
75634;SDS011;64227;48.724;9.104;2023-01-15T05:36:05;1.60;;;0.00;;
75634;SDS011;64227;48.724;9.104;2023-01-15T05:38:32;0.68;;;0.17;;
75634;SDS011;64227;48.724;9.104;2023-01-15T05:40:58;0.00;;;0.00;;
75634;SDS011;64227;48.724;9.104;2023-01-15T05:43:24;0.00;;;0.00;;
75634;SDS011;64227;48.724;9.104;2023-01-15T05:45:49;0.00;;;0.00;;
75634;SDS011;64227;48.724;9.104;2023-01-15T05:48:14;0.03;;;0.00;;
75634;SDS011;64227;48.724;9.104;2023-01-15T05:50:40;0.00;;;0.00;;
75634;SDS011;64227;48.724;9.104;2023-01-15T05:53:05;0.00;;;0.00;;
75634;SDS011;64227;48.724;9.104;2023-01-15T05:55:31;0.00;;;0.00;;
75634;SDS011;64227;48.724;9.104;2023-01-15T05:57:57;0.00;;;0.00;;
75634;SDS011;64227;48.724;9.104;2023-01-15T06:00:22;0.00;;;0.00;;
75634;SDS011;64227;48.724;9.104;2023-01-15T06:02:48;0.00;;;0.00;;
75634;SDS011;64227;48.724;9.104;2023-01-15T06:05:14;0.00;;;0.00;;
75634;SDS011;64227;48.724;9.104;2023-01-15T06:07:44;0.00;;;0.00;;
75634;SDS011;64227;48.724;9.104;2023-01-15T06:10:13;0.05;;;0.00;;
75634;SDS011;64227;48.724;9.104;2023-01-15T06:12:39;0.00;;;0.00;;
75634;SDS011;64227;48.724;9.104;2023-01-15T06:15:05;0.00;;;0.00;;
75634;SDS011;64227;48.724;9.104;2023-01-15T06:17:31;0.00;;;0.00;;
75634;SDS011;64227;48.724;9.104;2023-01-15T06:19:56;0.00;;;0.00;;
75634;SDS011;64227;48.724;9.104;2023-01-15T06:22:21;0.00;;;0.00;;
75634;SDS011;64227;48.724;9.104;2023-01-15T06:24:46;0.00;;;0.00;;
75634;SDS011;64227;48.724;9.104;2023-01-15T06:27:12;0.00;;;0.00;;
75634;SDS011;64227;48.724;9.104;2023-01-15T06:29:37;0.47;;;0.00;;
75634;SDS011;64227;48.724;9.104;2023-01-15T06:32:02;0.00;;;0.00;;
75634;SDS011;64227;48.724;9.104;2023-01-15T06:34:28;0.00;;;0.00;;
75634;SDS011;64227;48.724;9.104;2023-01-15T06:36:53;0.00;;;0.00;;
75634;SDS011;64227;48.724;9.104;2023-01-15T06:39:18;0.00;;;0.00;;
75634;SDS011;64227;48.724;9.104;2023-01-15T06:41:43;0.00;;;0.00;;
75634;SDS011;64227;48.724;9.104;2023-01-15T06:44:27;0.40;;;0.15;;
75634;SDS011;64227;48.724;9.104;2023-01-15T06:47:15;1.20;;;0.10;;
75634;SDS011;64227;48.724;9.104;2023-01-15T06:49:46;0.00;;;0.00;;
75634;SDS011;64227;48.724;9.104;2023-01-15T06:52:15;0.00;;;0.00;;
75634;SDS011;64227;48.724;9.104;2023-01-15T06:54:40;0.03;;;0.00;;
75634;SDS011;64227;48.724;9.104;2023-01-15T06:57:06;0.00;;;0.00;;
75634;SDS011;64227;48.724;9.104;2023-01-15T06:59:31;0.00;;;0.00;;
75634;SDS011;64227;48.724;9.104;2023-01-15T07:01:56;0.00;;;0.00;;
75634;SDS011;64227;48.724;9.104;2023-01-15T07:04:22;0.00;;;0.00;;
75634;SDS011;64227;48.724;9.104;2023-01-15T07:06:47;0.00;;;0.00;;
75634;SDS011;64227;48.724;9.104;2023-01-15T07:09:12;0.00;;;0.00;;
75634;SDS011;64227;48.724;9.104;2023-01-15T07:11:38;0.08;;;0.08;;
75634;SDS011;64227;48.724;9.104;2023-01-15T07:14:13;0.73;;;0.10;;
75634;SDS011;64227;48.724;9.104;2023-01-15T07:16:48;0.10;;;0.10;;
75634;SDS011;64227;48.724;9.104;2023-01-15T07:19:14;0.20;;;0.20;;
75634;SDS011;64227;48.724;9.104;2023-01-15T07:21:40;0.00;;;0.00;;
75634;SDS011;64227;48.724;9.104;2023-01-15T07:24:05;1.05;;;0.68;;
75634;SDS011;64227;48.724;9.104;2023-01-15T07:26:31;6.53;;;3.80;;
75634;SDS011;64227;48.724;9.104;2023-01-15T07:28:57;13.68;;;6.93;;
75634;SDS011;64227;48.724;9.104;2023-01-15T07:31:22;9.60;;;5.40;;
75634;SDS011;64227;48.724;9.104;2023-01-15T07:33:47;54.45;;;30.77;;
75634;SDS011;64227;48.724;9.104;2023-01-15T07:36:13;22.08;;;13.23;;
75634;SDS011;64227;48.724;9.104;2023-01-15T07:38:38;24.65;;;15.63;;
75634;SDS011;64227;48.724;9.104;2023-01-15T07:41:03;8.90;;;7.07;;
75634;SDS011;64227;48.724;9.104;2023-01-15T07:43:47;5.90;;;4.70;;
75634;SDS011;64227;48.724;9.104;2023-01-15T07:46:36;29.00;;;19.42;;
75634;SDS011;64227;48.724;9.104;2023-01-15T07:49:19;13.90;;;10.68;;
75634;SDS011;64227;48.724;9.104;2023-01-15T07:52:03;5.95;;;5.32;;
75634;SDS011;64227;48.724;9.104;2023-01-15T07:54:29;2.40;;;2.20;;
75634;SDS011;64227;48.724;9.104;2023-01-15T07:56:54;1.00;;;0.93;;
75634;SDS011;64227;48.724;9.104;2023-01-15T07:59:20;1.10;;;1.00;;
75634;SDS011;64227;48.724;9.104;2023-01-15T08:01:45;1.73;;;1.63;;
75634;SDS011;64227;48.724;9.104;2023-01-15T08:04:11;0.90;;;0.90;;
75634;SDS011;64227;48.724;9.104;2023-01-15T08:06:36;0.30;;;0.30;;
75634;SDS011;64227;48.724;9.104;2023-01-15T08:09:02;0.10;;;0.00;;
75634;SDS011;64227;48.724;9.104;2023-01-15T08:11:28;0.10;;;0.10;;
75634;SDS011;64227;48.724;9.104;2023-01-15T08:14:12;0.03;;;0.03;;
75634;SDS011;64227;48.724;9.104;2023-01-15T08:16:56;0.17;;;0.17;;
75634;SDS011;64227;48.724;9.104;2023-01-15T08:19:21;0.10;;;0.10;;
75634;SDS011;64227;48.724;9.104;2023-01-15T08:21:49;0.00;;;0.00;;
75634;SDS011;64227;48.724;9.104;2023-01-15T08:24:14;0.20;;;0.20;;
75634;SDS011;64227;48.724;9.104;2023-01-15T08:26:40;0.30;;;0.10;;
75634;SDS011;64227;48.724;9.104;2023-01-15T08:29:05;0.08;;;0.08;;
75634;SDS011;64227;48.724;9.104;2023-01-15T08:31:30;0.10;;;0.10;;
75634;SDS011;64227;48.724;9.104;2023-01-15T08:33:55;0.10;;;0.10;;
75634;SDS011;64227;48.724;9.104;2023-01-15T08:36:21;0.00;;;0.00;;
75634;SDS011;64227;48.724;9.104;2023-01-15T08:38:49;0.00;;;0.00;;
75634;SDS011;64227;48.724;9.104;2023-01-15T08:41:15;0.10;;;0.10;;
75634;SDS011;64227;48.724;9.104;2023-01-15T08:43:40;0.00;;;0.00;;
75634;SDS011;64227;48.724;9.104;2023-01-15T08:46:05;0.03;;;0.03;;
75634;SDS011;64227;48.724;9.104;2023-01-15T08:48:31;0.00;;;0.00;;
75634;SDS011;64227;48.724;9.104;2023-01-15T08:50:57;0.00;;;0.00;;
75634;SDS011;64227;48.724;9.104;2023-01-15T08:53:23;0.00;;;0.00;;
75634;SDS011;64227;48.724;9.104;2023-01-15T08:55:48;0.25;;;0.20;;
75634;SDS011;64227;48.724;9.104;2023-01-15T08:58:14;0.10;;;0.00;;
75634;SDS011;64227;48.724;9.104;2023-01-15T09:00:40;0.08;;;0.08;;
75634;SDS011;64227;48.724;9.104;2023-01-15T09:03:05;0.08;;;0.08;;
75634;SDS011;64227;48.724;9.104;2023-01-15T09:05:31;0.00;;;0.00;;
75634;SDS011;64227;48.724;9.104;2023-01-15T09:07:56;0.00;;;0.00;;
75634;SDS011;64227;48.724;9.104;2023-01-15T09:10:21;0.30;;;0.10;;
75634;SDS011;64227;48.724;9.104;2023-01-15T09:12:47;0.75;;;0.10;;
75634;SDS011;64227;48.724;9.104;2023-01-15T09:15:12;0.10;;;0.10;;
75634;SDS011;64227;48.724;9.104;2023-01-15T09:17:38;0.38;;;0.05;;
75634;SDS011;64227;48.724;9.104;2023-01-15T09:20:05;1.55;;;0.10;;
75634;SDS011;64227;48.724;9.104;2023-01-15T09:22:32;0.10;;;0.10;;
75634;SDS011;64227;48.724;9.104;2023-01-15T09:24:58;0.10;;;0.00;;
75634;SDS011;64227;48.724;9.104;2023-01-15T09:27:23;0.10;;;0.10;;
75634;SDS011;64227;48.724;9.104;2023-01-15T09:29:49;0.40;;;0.10;;
75634;SDS011;64227;48.724;9.104;2023-01-15T09:32:14;1.75;;;0.20;;
75634;SDS011;64227;48.724;9.104;2023-01-15T09:34:39;0.13;;;0.13;;
75634;SDS011;64227;48.724;9.104;2023-01-15T09:37:05;0.20;;;0.20;;
75634;SDS011;64227;48.724;9.104;2023-01-15T09:39:30;0.30;;;0.20;;
75634;SDS011;64227;48.724;9.104;2023-01-15T09:42:08;0.10;;;0.10;;
75634;SDS011;64227;48.724;9.104;2023-01-15T09:47:43;0.00;;;0.00;;
75634;SDS011;64227;48.724;9.104;2023-01-15T09:55:56;7.05;;;2.58;;
75634;SDS011;64227;48.724;9.104;2023-01-15T09:58:26;1.80;;;0.80;;
75634;SDS011;64227;48.724;9.104;2023-01-15T10:00:57;13.38;;;4.60;;
75634;SDS011;64227;48.724;9.104;2023-01-15T10:03:44;16.65;;;5.22;;
75634;SDS011;64227;48.724;9.104;2023-01-15T10:06:23;15.32;;;5.68;;
75634;SDS011;64227;48.724;9.104;2023-01-15T10:08:56;11.90;;;4.45;;
75634;SDS011;64227;48.724;9.104;2023-01-15T10:11:28;9.35;;;3.38;;
75634;SDS011;64227;48.724;9.104;2023-01-15T10:14:22;9.65;;;3.22;;
75634;SDS011;64227;48.724;9.104;2023-01-15T10:16:55;7.32;;;2.22;;
75634;SDS011;64227;48.724;9.104;2023-01-15T10:19:20;6.55;;;2.38;;
75634;SDS011;64227;48.724;9.104;2023-01-15T10:21:57;11.80;;;3.65;;
75634;SDS011;64227;48.724;9.104;2023-01-15T10:24:31;28.55;;;8.07;;
75634;SDS011;64227;48.724;9.104;2023-01-15T10:27:04;13.50;;;4.38;;
75634;SDS011;64227;48.724;9.104;2023-01-15T10:29:51;11.45;;;4.30;;
75634;SDS011;64227;48.724;9.104;2023-01-15T10:32:24;4.85;;;2.00;;
75634;SDS011;64227;48.724;9.104;2023-01-15T10:35:08;4.82;;;1.73;;
75634;SDS011;64227;48.724;9.104;2023-01-15T10:37:57;13.90;;;4.20;;
75634;SDS011;64227;48.724;9.104;2023-01-15T10:43:24;14.82;;;5.15;;
75634;SDS011;64227;48.724;9.104;2023-01-15T10:45:59;14.57;;;4.25;;
75634;SDS011;64227;48.724;9.104;2023-01-15T10:48:45;8.07;;;2.97;;
75634;SDS011;64227;48.724;9.104;2023-01-15T10:51:13;3.80;;;1.75;;
75634;SDS011;64227;48.724;9.104;2023-01-15T10:53:43;3.88;;;1.80;;
75634;SDS011;64227;48.724;9.104;2023-01-15T10:56:16;1.92;;;0.85;;
75634;SDS011;64227;48.724;9.104;2023-01-15T10:58:46;2.88;;;1.35;;
75634;SDS011;64227;48.724;9.104;2023-01-15T11:01:16;13.07;;;5.55;;
75634;SDS011;64227;48.724;9.104;2023-01-15T11:03:47;7.57;;;3.40;;
75634;SDS011;64227;48.724;9.104;2023-01-15T11:06:13;7.40;;;3.45;;
75634;SDS011;64227;48.724;9.104;2023-01-15T11:09:01;2.85;;;1.48;;
75634;SDS011;64227;48.724;9.104;2023-01-15T11:14:46;2.17;;;0.90;;
75634;SDS011;64227;48.724;9.104;2023-01-15T11:20:47;5.65;;;1.70;;
75634;SDS011;64227;48.724;9.104;2023-01-15T11:23:28;6.60;;;2.13;;
75634;SDS011;64227;48.724;9.104;2023-01-15T11:25:59;9.35;;;3.63;;
75634;SDS011;64227;48.724;9.104;2023-01-15T11:28:32;10.77;;;3.83;;
75634;SDS011;64227;48.724;9.104;2023-01-15T11:31:00;5.90;;;1.58;;
75634;SDS011;64227;48.724;9.104;2023-01-15T11:33:27;11.48;;;4.10;;
75634;SDS011;64227;48.724;9.104;2023-01-15T11:35:54;5.25;;;1.45;;
75634;SDS011;64227;48.724;9.104;2023-01-15T11:38:25;4.68;;;1.35;;
75634;SDS011;64227;48.724;9.104;2023-01-15T11:40:56;1.58;;;0.82;;
75634;SDS011;64227;48.724;9.104;2023-01-15T11:43:28;0.00;;;0.00;;
75634;SDS011;64227;48.724;9.104;2023-01-15T11:46:31;0.00;;;0.00;;
75634;SDS011;64227;48.724;9.104;2023-01-15T11:49:22;0.00;;;0.00;;
75634;SDS011;64227;48.724;9.104;2023-01-15T11:52:07;0.00;;;0.00;;
75634;SDS011;64227;48.724;9.104;2023-01-15T11:54:36;0.10;;;0.00;;
75634;SDS011;64227;48.724;9.104;2023-01-15T11:57:07;0.00;;;0.00;;
75634;SDS011;64227;48.724;9.104;2023-01-15T11:59:33;0.00;;;0.00;;
75634;SDS011;64227;48.724;9.104;2023-01-15T12:02:17;0.00;;;0.00;;
75634;SDS011;64227;48.724;9.104;2023-01-15T12:11:34;0.28;;;0.20;;
75634;SDS011;64227;48.724;9.104;2023-01-15T12:20:04;0.28;;;0.20;;
75634;SDS011;64227;48.724;9.104;2023-01-15T12:34:24;0.03;;;0.03;;
75634;SDS011;64227;48.724;9.104;2023-01-15T12:39:26;0.05;;;0.00;;
75634;SDS011;64227;48.724;9.104;2023-01-15T12:41:58;0.22;;;0.10;;
75634;SDS011;64227;48.724;9.104;2023-01-15T12:52:47;0.80;;;0.60;;
75634;SDS011;64227;48.724;9.104;2023-01-15T12:55:18;0.40;;;0.13;;
75634;SDS011;64227;48.724;9.104;2023-01-15T12:57:46;1.35;;;0.60;;
75634;SDS011;64227;48.724;9.104;2023-01-15T13:00:16;0.65;;;0.30;;
75634;SDS011;64227;48.724;9.104;2023-01-15T13:05:42;0.80;;;0.80;;
75634;SDS011;64227;48.724;9.104;2023-01-15T13:10:56;3.05;;;1.92;;
75634;SDS011;64227;48.724;9.104;2023-01-15T13:13:22;4.50;;;2.53;;
75634;SDS011;64227;48.724;9.104;2023-01-15T13:15:59;1.75;;;0.60;;
75634;SDS011;64227;48.724;9.104;2023-01-15T13:21:16;1.63;;;0.93;;
75634;SDS011;64227;48.724;9.104;2023-01-15T13:23:52;0.30;;;0.30;;
75634;SDS011;64227;48.724;9.104;2023-01-15T13:32:39;1.13;;;0.60;;
75634;SDS011;64227;48.724;9.104;2023-01-15T13:35:17;0.43;;;0.20;;
75634;SDS011;64227;48.724;9.104;2023-01-15T13:37:50;0.85;;;0.35;;
75634;SDS011;64227;48.724;9.104;2023-01-15T13:42:53;1.20;;;0.30;;
75634;SDS011;64227;48.724;9.104;2023-01-15T13:45:21;0.82;;;0.50;;
75634;SDS011;64227;48.724;9.104;2023-01-15T13:47:55;0.88;;;0.38;;
75634;SDS011;64227;48.724;9.104;2023-01-15T13:50:33;0.85;;;0.60;;
75634;SDS011;64227;48.724;9.104;2023-01-15T13:53:06;1.05;;;0.60;;
75634;SDS011;64227;48.724;9.104;2023-01-15T13:55:39;4.05;;;0.30;;
75634;SDS011;64227;48.724;9.104;2023-01-15T14:01:08;1.95;;;0.70;;
75634;SDS011;64227;48.724;9.104;2023-01-15T14:03:54;0.52;;;0.32;;
75634;SDS011;64227;48.724;9.104;2023-01-15T14:06:46;0.90;;;0.45;;
75634;SDS011;64227;48.724;9.104;2023-01-15T14:12:00;0.82;;;0.40;;
75634;SDS011;64227;48.724;9.104;2023-01-15T14:34:23;2.17;;;0.20;;
75634;SDS011;64227;48.724;9.104;2023-01-15T15:11:24;2.90;;;0.47;;
75634;SDS011;64227;48.724;9.104;2023-01-15T15:14:20;0.28;;;0.22;;
75634;SDS011;64227;48.724;9.104;2023-01-15T15:34:31;3.03;;;0.28;;
75634;SDS011;64227;48.724;9.104;2023-01-15T15:42:45;0.43;;;0.20;;
75634;SDS011;64227;48.724;9.104;2023-01-15T15:45:33;0.85;;;0.30;;
75634;SDS011;64227;48.724;9.104;2023-01-15T15:48:21;3.50;;;0.30;;
75634;SDS011;64227;48.724;9.104;2023-01-15T15:54:10;1.30;;;0.38;;
75634;SDS011;64227;48.724;9.104;2023-01-15T15:56:36;0.30;;;0.20;;
75634;SDS011;64227;48.724;9.104;2023-01-15T15:59:03;1.42;;;0.32;;
75634;SDS011;64227;48.724;9.104;2023-01-15T16:01:29;0.70;;;0.25;;
75634;SDS011;64227;48.724;9.104;2023-01-15T16:03:55;0.98;;;0.35;;
75634;SDS011;64227;48.724;9.104;2023-01-15T16:06:42;0.93;;;0.28;;
75634;SDS011;64227;48.724;9.104;2023-01-15T16:09:07;1.83;;;0.32;;
75634;SDS011;64227;48.724;9.104;2023-01-15T16:11:36;0.98;;;0.45;;
75634;SDS011;64227;48.724;9.104;2023-01-15T16:14:05;0.40;;;0.25;;
75634;SDS011;64227;48.724;9.104;2023-01-15T16:16:32;0.75;;;0.50;;
75634;SDS011;64227;48.724;9.104;2023-01-15T16:18:58;0.50;;;0.30;;
75634;SDS011;64227;48.724;9.104;2023-01-15T16:21:28;0.50;;;0.30;;
75634;SDS011;64227;48.724;9.104;2023-01-15T16:23:56;2.42;;;0.20;;
75634;SDS011;64227;48.724;9.104;2023-01-15T16:26:23;1.10;;;0.77;;
75634;SDS011;64227;48.724;9.104;2023-01-15T16:28:56;1.05;;;0.60;;
75634;SDS011;64227;48.724;9.104;2023-01-15T16:31:22;1.05;;;0.65;;
75634;SDS011;64227;48.724;9.104;2023-01-15T16:33:54;0.73;;;0.57;;
75634;SDS011;64227;48.724;9.104;2023-01-15T16:36:20;1.17;;;0.30;;
75634;SDS011;64227;48.724;9.104;2023-01-15T16:38:47;2.42;;;0.40;;
75634;SDS011;64227;48.724;9.104;2023-01-15T16:41:22;1.92;;;0.52;;
75634;SDS011;64227;48.724;9.104;2023-01-15T16:43:52;0.63;;;0.38;;
75634;SDS011;64227;48.724;9.104;2023-01-15T16:46:21;1.27;;;0.35;;
75634;SDS011;64227;48.724;9.104;2023-01-15T16:48:48;0.30;;;0.30;;
75634;SDS011;64227;48.724;9.104;2023-01-15T16:53:51;2.05;;;0.35;;
75634;SDS011;64227;48.724;9.104;2023-01-15T16:59:01;0.30;;;0.20;;
75634;SDS011;64227;48.724;9.104;2023-01-15T17:01:46;1.67;;;0.40;;
75634;SDS011;64227;48.724;9.104;2023-01-15T17:04:20;2.42;;;0.38;;
75634;SDS011;64227;48.724;9.104;2023-01-15T17:09:38;1.50;;;0.50;;
75634;SDS011;64227;48.724;9.104;2023-01-15T17:12:17;0.73;;;0.22;;
75634;SDS011;64227;48.724;9.104;2023-01-15T17:14:48;0.77;;;0.40;;
75634;SDS011;64227;48.724;9.104;2023-01-15T17:19:51;2.38;;;1.15;;
75634;SDS011;64227;48.724;9.104;2023-01-15T17:22:27;2.78;;;0.40;;
75634;SDS011;64227;48.724;9.104;2023-01-15T17:24:57;1.55;;;0.40;;
75634;SDS011;64227;48.724;9.104;2023-01-15T17:27:24;0.80;;;0.32;;
75634;SDS011;64227;48.724;9.104;2023-01-15T17:29:49;1.33;;;0.68;;
75634;SDS011;64227;48.724;9.104;2023-01-15T17:32:27;1.08;;;0.32;;
75634;SDS011;64227;48.724;9.104;2023-01-15T17:35:21;1.10;;;0.50;;
75634;SDS011;64227;48.724;9.104;2023-01-15T17:37:57;2.53;;;0.50;;
75634;SDS011;64227;48.724;9.104;2023-01-15T17:40:25;0.47;;;0.30;;
75634;SDS011;64227;48.724;9.104;2023-01-15T17:42:53;3.70;;;0.63;;
75634;SDS011;64227;48.724;9.104;2023-01-15T17:45:20;2.75;;;0.70;;
75634;SDS011;64227;48.724;9.104;2023-01-15T17:47:48;0.75;;;0.50;;
75634;SDS011;64227;48.724;9.104;2023-01-15T17:50:14;1.38;;;0.55;;
75634;SDS011;64227;48.724;9.104;2023-01-15T17:52:40;0.73;;;0.40;;
75634;SDS011;64227;48.724;9.104;2023-01-15T17:55:09;0.73;;;0.32;;
75634;SDS011;64227;48.724;9.104;2023-01-15T17:57:57;2.78;;;0.55;;
75634;SDS011;64227;48.724;9.104;2023-01-15T18:00:41;0.20;;;0.20;;
75634;SDS011;64227;48.724;9.104;2023-01-15T18:03:38;1.85;;;0.60;;
75634;SDS011;64227;48.724;9.104;2023-01-15T18:06:52;0.98;;;0.50;;
75634;SDS011;64227;48.724;9.104;2023-01-15T18:12:50;1.27;;;0.35;;
75634;SDS011;64227;48.724;9.104;2023-01-15T18:15:15;1.65;;;0.40;;
75634;SDS011;64227;48.724;9.104;2023-01-15T18:17:41;0.68;;;0.40;;
75634;SDS011;64227;48.724;9.104;2023-01-15T18:20:09;2.05;;;0.52;;